Historyczne dane pomiarowe

Dodano dane terminowe – wersja testowa.

Dane z okresu 1951-2019

Wersja bazy: 1.34 [2019-03-16, lista zmian], aktualizacja planowana na 2019-04-15

Dane meteo z obszaru Polski uzyskane na podstawie danych udostępnionych przez Instytut Meteorologii i Gospodarki Wodnej – Państwowy Instytut Badawczy.

 

Wybierz Datę:    

       

TemperaturaWilgotnośćWiatrCiśnienieOpadyŚniegCzas trwania zjawisk
 Stacja t tx tn tng RH VA  wxwx mslp ppp RRR   cm mm wxwxwxwxwxwxwx
1961-08-14 15.0 18.8 10.4 9.0-- 4.7 0.3---- 0.0------------
1961-08-13 13.3 21.9 12.2 14.9-- 8.0 0.7---- 9.0------------
1961-08-12 18.8 22.0 16.2 14.6-- 7.7 0.0---- 17.7------------
1961-08-11 24.0 32.3 17.8 15.9-- 3.0 1.0---- 0.0------------
1961-08-10 23.7 28.6 17.2 16.4-- 4.7 1.0---- 0.0------------
1961-08-09 22.8 28.6 14.2 12.6-- 2.7 0.0---- 0.0------------
1961-08-08 19.1 21.9 15.8 15.0-- 6.3 0.0---- 2.7------------
1961-08-07 22.7 30.3 13.8 15.1-- 0.3 0.7---- 0.0------------
1961-08-06 23.1 29.6 13.7 11.4-- 0.7 1.0---- 0.0------------
1961-08-05 18.7 23.1 9.8 12.0-- 4.3 1.7---- 0.0------------
1961-08-04 16.6 21.6 8.7 8.8-- 3.7 0.3---- 0.0------------
1961-08-03 19.6 24.5 9.6 10.1-- 4.0 1.0---- 0.5------------
1961-08-02 19.3 25.2 8.1 7.1-- 1.0 0.3---- 0.0------------
1961-08-01 15.8 20.5 10.6 9.9-- 4.3 2.7---- 0.0------------
1961-07-31 13.9 18.5 8.0 12.1-- 5.3 2.0---- 0.0------------
1961-07-30 13.9 15.7 11.4 12.6-- 8.0 0.7---- 20.6------------
1961-07-29 15.0 17.8 12.7 12.3-- 8.0 0.0---- 16.6------------
1961-07-28 20.3 27.6 13.1 14.2-- 6.3 0.7---- 2.0------------
1961-07-27 21.7 27.3 11.2 11.8-- 4.3 1.7---- 1.9------------
1961-07-26 16.8 20.1 9.9 12.3-- 4.7 0.3---- 0.0------------
1961-07-25 15.2 17.8 7.4 10.0-- 7.0 1.0---- 0.0------------
1961-07-24 15.1 19.7 9.0 7.2-- 7.7 0.3---- 0.0------------
1961-07-23 15.6 19.9 8.3 10.0-- 5.7 0.7---- 0.0------------
1961-07-22 14.2 21.9 11.5 11.5-- 4.3 1.0---- 1.8------------
1961-07-21 15.9 21.9 12.5 12.3-- 4.0 0.7---- 3.1------------
1961-07-20 17.3 22.3 8.3 8.0-- 5.0 1.0---- 0.0------------
1961-07-19 14.8 21.4 8.1 10.0-- 2.3 0.3---- 0.0------------
1961-07-18 14.3 18.3 7.6 7.5-- 2.3 0.7---- 0.0------------
1961-07-17 14.7 22.4 9.1 13.7-- 7.0 0.0---- 6.9------------
1961-07-16 15.8 22.7 13.0 8.8-- 5.7 1.7---- 0.0------------
1961-07-15 17.1 23.8 8.5 5.5-- 4.0 0.7---- 1.3------------
1961-07-14 15.1 23.4 12.2 14.3-- 4.7 2.0---- 0.0------------
1961-07-13 23.4 28.8 14.5 12.0-- 4.0 1.7---- 2.1------------
1961-07-12 19.3 25.5 10.7 11.0-- 3.0 1.3---- 0.9------------
1961-07-11 17.1 22.2 7.1 4.2-- 2.0 1.0---- 0.0------------
1961-07-10 14.1 19.9 9.9 8.4-- 6.3 1.3---- 0.0------------
1961-07-09 16.7 23.8 7.8 3.5-- 4.3 1.0---- 1.3------------
1961-07-08 14.6 19.7 8.5 5.0-- 4.0 0.0---- 0.0------------
1961-07-07 13.8 18.6 7.1 4.8-- 6.3 1.7---- 0.0------------
1961-07-06 13.5 17.3 6.6 7.6-- 5.3 1.3---- 1.1------------
1961-07-05 15.7 19.7 13.4 13.8-- 3.7 1.0---- 0.0------------
1961-07-04 21.4 28.9 16.5 14.1-- 0.3 0.7---- 5.3------------
1961-07-03 23.0 29.9 12.5 10.3-- 0.0 0.0---- 0.0------------
1961-07-02 21.5 27.4 10.4 6.0-- 0.0 0.0---- 0.0------------
1961-07-01 20.0 25.5 11.2 8.0-- 2.0 0.3---- 0.0------------
1961-06-30 18.7 23.6 9.5 7.0-- 1.3 0.7---- 0.0------------
1961-06-29 15.8 19.9 8.0 4.2-- 2.3 1.0---- 0.0------------
1961-06-28 14.1 23.2 11.8 16.5-- 5.7 2.0---- 2.7------------
1961-06-27 24.6 31.3 15.7 14.1-- 1.3 1.0---- 4.0------------
1961-06-26 21.7 31.6 14.5 10.6-- 3.3 2.3---- 4.5------------
1961-06-25 22.0 28.1 11.6 7.5-- 0.0 1.3---- 0.0------------
1961-06-24 19.0 24.6 10.2 6.5-- 0.7 2.0---- 0.0------------
1961-06-23 18.7 21.9 14.7 8.0-- 7.3 0.3---- 3.8------------
1961-06-22 16.3 22.1 9.7 6.8-- 0.7 0.3---- 0.0------------
1961-06-21 17.4 22.8 7.1 2.5-- 3.0 0.3---- 0.0------------
1961-06-20 15.8 20.6 9.6 5.0-- 1.3 0.3---- 0.0------------
1961-06-19 18.6 23.2 14.0 11.5-- 2.3 0.7---- 0.0------------
1961-06-18 20.0 24.9 10.2 8.5-- 2.3 0.0---- 0.0------------
1961-06-17 16.5 23.1 7.3 6.4-- 1.0 0.7---- 0.0------------
1961-06-16 14.0 18.1 8.1 7.0-- 5.7 0.7---- 0.0------------
428.5 ms

 

Źródłem pochodzenia danych jest Instytut Meteorologii i Gospodarki Wodnej – Państwowy Instytut Badawczy. Dane Instytutu Meteorologii i Gospodarki Wodnej – Państwowego Instytutu Badawczego zostały przetworzone.

Dane źródłowe można odnaleźć na stronie https://dane.imgw.pl